Time,TemperatureF,DewpointF,PressureIn,WindDirection,WindDirectionDegrees,WindSpeedMPH,WindSpeedGustMPH,Humidity,HourlyPrecipIn,Conditions,Clouds,dailyrainin,SoftwareType,DateUTC
2013-05-03 00:01:00,44.0,4.0,-100.00,North,-999,-999.0,-999.0,19,-99.99,,,-99.99,,2013-05-03 07:01:00,
2013-05-03 00:11:00,44.0,4.0,-100.00,North,-999,-999.0,-999.0,19,-99.99,,,-99.99,,2013-05-03 07:11:00,
2013-05-03 00:21:00,44.0,4.0,-100.00,North,-999,-999.0,-999.0,19,-99.99,,,-99.99,,2013-05-03 07:21:00,
2013-05-03 00:31:00,47.0,4.0,-100.00,North,-999,-999.0,-999.0,17,-99.99,,,-99.99,,2013-05-03 07:31:00,
2013-05-03 00:42:00,47.0,4.0,-100.00,North,-999,-999.0,-999.0,17,-99.99,,,-99.99,,2013-05-03 07:42:00,
2013-05-03 00:52:00,47.0,4.0,-100.00,North,-999,-999.0,-999.0,17,-99.99,,,-99.99,,2013-05-03 07:52:00,
2013-05-03 01:01:00,42.0,4.0,-100.00,North,-999,-999.0,-999.0,20,-99.99,,,-99.99,,2013-05-03 08:01:00,
2013-05-03 01:11:00,42.0,4.0,-100.00,North,-999,-999.0,-999.0,20,-99.99,,,-99.99,,2013-05-03 08:11:00,
2013-05-03 01:21:00,42.0,4.0,-100.00,North,-999,-999.0,-999.0,20,-99.99,,,-99.99,,2013-05-03 08:21:00,
2013-05-03 01:31:00,40.0,5.0,-100.00,North,-999,-999.0,-999.0,23,-99.99,,,-99.99,,2013-05-03 08:31:00,
2013-05-03 01:42:00,40.0,5.0,-100.00,North,-999,-999.0,-999.0,23,-99.99,,,-99.99,,2013-05-03 08:42:00,
2013-05-03 01:52:00,40.0,5.0,-100.00,North,-999,-999.0,-999.0,23,-99.99,,,-99.99,,2013-05-03 08:52:00,
2013-05-03 02:01:00,39.0,6.0,-100.00,North,-999,-999.0,-999.0,25,-99.99,,,-99.99,,2013-05-03 09:01:00,
2013-05-03 02:11:00,39.0,6.0,-100.00,North,-999,-999.0,-999.0,25,-99.99,,,-99.99,,2013-05-03 09:11:00,
2013-05-03 02:21:00,39.0,6.0,-100.00,North,-999,-999.0,-999.0,25,-99.99,,,-99.99,,2013-05-03 09:21:00,
2013-05-03 02:32:00,38.0,6.0,-100.00,North,-999,-999.0,-999.0,26,-99.99,,,-99.99,,2013-05-03 09:32:00,
2013-05-03 02:42:00,38.0,6.0,-100.00,North,-999,-999.0,-999.0,26,-99.99,,,-99.99,,2013-05-03 09:42:00,
2013-05-03 02:53:00,38.0,6.0,-100.00,North,-999,-999.0,-999.0,26,-99.99,,,-99.99,,2013-05-03 09:53:00,
2013-05-03 03:02:00,36.0,6.0,-100.00,North,-999,-999.0,-999.0,28,-99.99,,,-99.99,,2013-05-03 10:02:00,
2013-05-03 03:32:00,36.0,7.0,-100.00,North,-999,-999.0,-999.0,29,-99.99,,,-99.99,,2013-05-03 10:32:00,
2013-05-03 04:02:00,35.0,6.0,-100.00,North,-999,-999.0,-999.0,29,-99.99,,,-99.99,,2013-05-03 11:02:00,
2013-05-03 04:11:00,35.0,6.0,-100.00,North,-999,-999.0,-999.0,29,-99.99,,,-99.99,,2013-05-03 11:11:00,
2013-05-03 04:22:00,35.0,6.0,-100.00,North,-999,-999.0,-999.0,29,-99.99,,,-99.99,,2013-05-03 11:22:00,
2013-05-03 04:31:00,34.0,7.0,-100.00,North,-999,-999.0,-999.0,31,-99.99,,,-99.99,,2013-05-03 11:31:00,
2013-05-03 05:32:00,33.0,8.0,-100.00,North,-999,-999.0,-999.0,34,-99.99,,,-99.99,,2013-05-03 12:32:00,
2013-05-03 05:42:00,33.0,8.0,-100.00,North,-999,-999.0,-999.0,34,-99.99,,,-99.99,,2013-05-03 12:42:00,
2013-05-03 05:52:00,33.0,9.0,-100.00,North,-999,-999.0,-999.0,36,-99.99,,,-99.99,,2013-05-03 12:52:00,
2013-05-03 06:01:00,33.0,9.0,-100.00,North,-999,-999.0,-999.0,36,-99.99,,,-99.99,,2013-05-03 13:01:00,
2013-05-03 06:11:00,33.0,9.0,-100.00,North,-999,-999.0,-999.0,36,-99.99,,,-99.99,,2013-05-03 13:11:00,
2013-05-03 06:22:00,33.0,9.0,-100.00,North,-999,-999.0,-999.0,36,-99.99,,,-99.99,,2013-05-03 13:22:00,
2013-05-03 06:31:00,33.0,8.0,-100.00,North,-999,-999.0,-999.0,35,-99.99,,,-99.99,,2013-05-03 13:31:00,
2013-05-03 06:42:00,33.0,8.0,-100.00,North,-999,-999.0,-999.0,35,-99.99,,,-99.99,,2013-05-03 13:42:00,
2013-05-03 06:52:00,33.0,8.0,-100.00,North,-999,-999.0,-999.0,35,-99.99,,,-99.99,,2013-05-03 13:52:00,
2013-05-03 07:01:00,33.0,9.0,-100.00,North,-999,-999.0,-999.0,36,-99.99,,,-99.99,,2013-05-03 14:01:00,
2013-05-03 07:11:00,33.0,9.0,-100.00,North,-999,-999.0,-999.0,36,-99.99,,,-99.99,,2013-05-03 14:11:00,
2013-05-03 07:21:00,33.0,9.0,-100.00,North,-999,-999.0,-999.0,36,-99.99,,,-99.99,,2013-05-03 14:21:00,
2013-05-03 07:31:00,35.0,10.0,-100.00,North,-999,-999.0,-999.0,35,-99.99,,,-99.99,,2013-05-03 14:31:00,
2013-05-03 07:42:00,35.0,10.0,-100.00,North,-999,-999.0,-999.0,35,-99.99,,,-99.99,,2013-05-03 14:42:00,
2013-05-03 07:52:00,35.0,10.0,-100.00,North,-999,-999.0,-999.0,35,-99.99,,,-99.99,,2013-05-03 14:52:00,
2013-05-03 08:01:00,43.0,13.0,-100.00,North,-999,-999.0,-999.0,29,-99.99,,,-99.99,,2013-05-03 15:01:00,
2013-05-03 08:11:00,43.0,13.0,-100.00,North,-999,-999.0,-999.0,29,-99.99,,,-99.99,,2013-05-03 15:11:00,
2013-05-03 08:22:00,43.0,13.0,-100.00,North,-999,-999.0,-999.0,29,-99.99,,,-99.99,,2013-05-03 15:22:00,
2013-05-03 08:32:00,43.0,13.0,-100.00,North,-999,-999.0,-999.0,29,-99.99,,,-99.99,,2013-05-03 15:32:00,
2013-05-03 09:03:00,71.0,19.0,-100.00,North,-999,-999.0,-999.0,14,-99.99,,,-99.99,,2013-05-03 16:03:00,
2013-05-03 09:22:00,71.0,19.0,-100.00,North,-999,-999.0,-999.0,14,-99.99,,,-99.99,,2013-05-03 16:22:00,
2013-05-03 09:32:00,78.0,9.0,-100.00,North,-999,-999.0,-999.0,7,-99.99,,,-99.99,,2013-05-03 16:32:00,
2013-05-03 10:32:00,81.0,8.0,-100.00,North,-999,-999.0,-999.0,6,-99.99,,,-99.99,,2013-05-03 17:32:00,
2013-05-03 10:42:00,81.0,8.0,-100.00,North,-999,-999.0,-999.0,6,-99.99,,,-99.99,,2013-05-03 17:42:00,
2013-05-03 11:01:00,82.0,4.0,-100.00,North,-999,-999.0,-999.0,5,-99.99,,,-99.99,,2013-05-03 18:01:00,
2013-05-03 11:12:00,82.0,4.0,-100.00,North,-999,-999.0,-999.0,5,-99.99,,,-99.99,,2013-05-03 18:12:00,
2013-05-03 11:21:00,82.0,4.0,-100.00,North,-999,-999.0,-999.0,5,-99.99,,,-99.99,,2013-05-03 18:21:00,
2013-05-03 11:31:00,84.0,13.0,-100.00,North,-999,-999.0,-999.0,7,-99.99,,,-99.99,,2013-05-03 18:31:00,
2013-05-03 11:42:00,84.0,13.0,-100.00,North,-999,-999.0,-999.0,7,-99.99,,,-99.99,,2013-05-03 18:42:00,
2013-05-03 11:52:00,84.0,13.0,-100.00,North,-999,-999.0,-999.0,7,-99.99,,,-99.99,,2013-05-03 18:52:00,
2013-05-03 12:01:00,84.0,13.0,-100.00,North,-999,-999.0,-999.0,7,-99.99,,,-99.99,,2013-05-03 19:01:00,
2013-05-03 12:32:00,83.0,16.0,-100.00,North,-999,-999.0,-999.0,8,-99.99,,,-99.99,,2013-05-03 19:32:00,
2013-05-03 12:42:00,83.0,16.0,-100.00,North,-999,-999.0,-999.0,8,-99.99,,,-99.99,,2013-05-03 19:42:00,
2013-05-03 12:52:00,83.0,16.0,-100.00,North,-999,-999.0,-999.0,8,-99.99,,,-99.99,,2013-05-03 19:52:00,
2013-05-03 13:02:00,84.0,13.0,-100.00,North,-999,-999.0,-999.0,7,-99.99,,,-99.99,,2013-05-03 20:02:00,
2013-05-03 13:11:00,84.0,13.0,-100.00,North,-999,-999.0,-999.0,7,-99.99,,,-99.99,,2013-05-03 20:11:00,
2013-05-03 13:21:00,84.0,13.0,-100.00,North,-999,-999.0,-999.0,7,-99.99,,,0.00,,2013-05-03 20:21:00,
2013-05-03 13:31:00,84.0,13.0,-100.00,North,-999,-999.0,-999.0,7,-99.99,,,0.00,,2013-05-03 20:31:00,
2013-05-03 13:42:00,84.0,13.0,-100.00,North,-999,-999.0,-999.0,7,-99.99,,,0.00,,2013-05-03 20:42:00,
2013-05-03 13:52:00,84.0,13.0,-100.00,North,-999,-999.0,-999.0,7,-99.99,,,0.00,,2013-05-03 20:52:00,
2013-05-03 14:01:00,85.0,17.0,-100.00,North,-999,-999.0,-999.0,8,-99.99,,,-99.99,,2013-05-03 21:01:00,
2013-05-03 14:11:00,85.0,17.0,-100.00,North,-999,-999.0,-999.0,8,-99.99,,,-99.99,,2013-05-03 21:11:00,
2013-05-03 14:21:00,85.0,17.0,-100.00,North,-999,-999.0,-999.0,8,-99.99,,,-99.99,,2013-05-03 21:21:00,
2013-05-03 14:32:00,82.0,15.0,-100.00,North,-999,-999.0,-999.0,8,-99.99,,,-99.99,,2013-05-03 21:32:00,
2013-05-03 14:42:00,82.0,15.0,-100.00,North,-999,-999.0,-999.0,8,-99.99,,,-99.99,,2013-05-03 21:42:00,
2013-05-03 14:52:00,84.0,19.0,-100.00,North,-999,-999.0,-999.0,9,-99.99,,,-99.99,,2013-05-03 21:52:00,
2013-05-03 15:02:00,84.0,19.0,-100.00,North,-999,-999.0,-999.0,9,-99.99,,,-99.99,,2013-05-03 22:02:00,
2013-05-03 15:12:00,84.0,19.0,-100.00,North,-999,-999.0,-999.0,9,-99.99,,,-99.99,,2013-05-03 22:12:00,
2013-05-03 15:22:00,84.0,19.0,-100.00,North,-999,-999.0,-999.0,9,-99.99,,,-99.99,,2013-05-03 22:22:00,
2013-05-03 15:32:00,84.0,19.0,-100.00,North,-999,-999.0,-999.0,9,-99.99,,,-99.99,,2013-05-03 22:32:00,
2013-05-03 17:01:00,81.0,17.0,-100.00,North,-999,-999.0,-999.0,9,-99.99,,,-99.99,,2013-05-04 00:01:00,
2013-05-03 17:11:00,81.0,17.0,-100.00,North,-999,-999.0,-999.0,9,-99.99,,,-99.99,,2013-05-04 00:11:00,
2013-05-03 17:22:00,81.0,17.0,-100.00,North,-999,-999.0,-999.0,9,-99.99,,,-99.99,,2013-05-04 00:22:00,
2013-05-03 17:31:00,80.0,16.0,-100.00,North,-999,-999.0,-999.0,9,-99.99,,,-99.99,,2013-05-04 00:31:00,
2013-05-03 17:42:00,80.0,16.0,-100.00,North,-999,-999.0,-999.0,9,-99.99,,,-99.99,,2013-05-04 00:42:00,
2013-05-03 17:52:00,79.0,18.0,-100.00,North,-999,-999.0,-999.0,10,-99.99,,,-99.99,,2013-05-04 00:52:00,
2013-05-03 18:01:00,79.0,18.0,-100.00,North,-999,-999.0,-999.0,10,-99.99,,,-99.99,,2013-05-04 01:01:00,
2013-05-03 18:11:00,79.0,18.0,-100.00,North,-999,-999.0,-999.0,10,-99.99,,,-99.99,,2013-05-04 01:11:00,
2013-05-03 18:21:00,79.0,18.0,-100.00,North,-999,-999.0,-999.0,10,-99.99,,,-99.99,,2013-05-04 01:21:00,
2013-05-03 18:31:00,79.0,18.0,-100.00,North,-999,-999.0,-999.0,10,-99.99,,,-99.99,,2013-05-04 01:31:00,
2013-05-03 18:42:00,79.0,18.0,-100.00,North,-999,-999.0,-999.0,10,-99.99,,,-99.99,,2013-05-04 01:42:00,
2013-05-03 18:52:00,79.0,18.0,-100.00,North,-999,-999.0,-999.0,10,-99.99,,,-99.99,,2013-05-04 01:52:00,
2013-05-03 19:02:00,77.0,18.0,-100.00,North,-999,-999.0,-999.0,11,-99.99,,,-99.99,,2013-05-04 02:02:00,
2013-05-03 19:11:00,77.0,18.0,-100.00,North,-999,-999.0,-999.0,11,-99.99,,,-99.99,,2013-05-04 02:11:00,
2013-05-03 19:21:00,77.0,18.0,-100.00,North,-999,-999.0,-999.0,11,-99.99,,,-99.99,,2013-05-04 02:21:00,
2013-05-03 19:32:00,76.0,22.0,-100.00,North,-999,-999.0,-999.0,13,-99.99,,,-99.99,,2013-05-04 02:32:00,
2013-05-03 19:42:00,76.0,22.0,-100.00,North,-999,-999.0,-999.0,13,-99.99,,,-99.99,,2013-05-04 02:42:00,
2013-05-03 19:52:00,76.0,22.0,-100.00,North,-999,-999.0,-999.0,13,-99.99,,,-99.99,,2013-05-04 02:52:00,
2013-05-03 20:01:00,71.0,18.0,-100.00,North,-999,-999.0,-999.0,13,-99.99,,,-99.99,,2013-05-04 03:01:00,
2013-05-03 20:11:00,71.0,18.0,-100.00,North,-999,-999.0,-999.0,13,-99.99,,,-99.99,,2013-05-04 03:11:00,
2013-05-03 20:21:00,71.0,18.0,-100.00,North,-999,-999.0,-999.0,13,-99.99,,,-99.99,,2013-05-04 03:21:00,
2013-05-03 20:32:00,64.0,20.0,-100.00,North,-999,-999.0,-999.0,18,-99.99,,,-99.99,,2013-05-04 03:32:00,
2013-05-03 20:52:00,64.0,20.0,-100.00,North,-999,-999.0,-999.0,18,-99.99,,,-99.99,,2013-05-04 03:52:00,
2013-05-03 21:02:00,59.0,19.0,-100.00,North,-999,-999.0,-999.0,21,-99.99,,,-99.99,,2013-05-04 04:02:00,
2013-05-03 21:12:00,59.0,19.0,-100.00,North,-999,-999.0,-999.0,21,-99.99,,,-99.99,,2013-05-04 04:12:00,
2013-05-03 21:22:00,59.0,19.0,-100.00,North,-999,-999.0,-999.0,21,-99.99,,,-99.99,,2013-05-04 04:22:00,
2013-05-03 21:32:00,59.0,19.0,-100.00,North,-999,-999.0,-999.0,21,-99.99,,,-99.99,,2013-05-04 04:32:00,
2013-05-03 22:02:00,53.0,21.0,-100.00,North,-999,-999.0,-999.0,28,-99.99,,,-99.99,,2013-05-04 05:02:00,
2013-05-03 22:21:00,53.0,21.0,-100.00,North,-999,-999.0,-999.0,28,-99.99,,,-99.99,,2013-05-04 05:21:00,
2013-05-03 22:32:00,51.0,20.0,-100.00,North,-999,-999.0,-999.0,29,-99.99,,,-99.99,,2013-05-04 05:32:00,
2013-05-03 23:01:00,49.0,22.0,-100.00,North,-999,-999.0,-999.0,34,-99.99,,,-99.99,,2013-05-04 06:01:00,
2013-05-03 23:32:00,47.0,21.0,-100.00,North,-999,-999.0,-999.0,36,-99.99,,,-99.99,,2013-05-04 06:32:00,
2013-05-03 23:42:00,47.0,21.0,-100.00,North,-999,-999.0,-999.0,36,-99.99,,,-99.99,,2013-05-04 06:42:00,
2013-05-03 23:52:00,47.0,21.0,-100.00,North,-999,-999.0,-999.0,36,-99.99,,,-99.99,,2013-05-04 06:52:00,